• Join FlightAware (Why Join?)
  • Login
  • US Flag 
05:55AM EDT


 

Airport Tracker/Info


-or-


 

Live Flight TrackerFlight Track Log ✈ EIN208 ✈ 14-Apr-2013 ✈ EIDW / DUB - EGCC / MAN

Flight Track Log - Related Links

Times and Time Zones

All times are in EDT time to prevent confusion due to time zone crossing. See the EIN208 flight status page for this flight to view local times or setup timezone preferences in your user account.

Time Position Orientation Groundspeed Altitude Reporting Facility
EDT Latitude Longitude Course Direction KTS MPH feet Rate Location/Type
09:30AM 53.4030 -6.2330 151° Southeast 131 151 2,900  Level FlightAware
09:31AM 53.3870 -6.2190 152° Southeast 125 144 4,000 1,500 Climbing FlightAware
09:31AM 53.3730 -6.2060 151° Southeast 153 176 4,300 840 Climbing FlightAware
09:32AM 53.3500 -6.1840 150° Southeast 209 241 4,800 1,200 Climbing FlightAware
09:32AM 53.3360 -6.1710 151° Southeast 233 268 5,200 1,800 Climbing FlightAware
09:32AM 53.3240 -6.1510 135° Southeast 261 300 5,700 2,400 Climbing FlightAware
09:32AM 53.3180 -6.1310 117° Southeast 284 327 6,200 2,700 Climbing FlightAware
09:32AM 53.3170 -6.1160 96° East 298 343 6,600 360 Climbing FlightAware
09:33AM 53.3271 -6.0552 96° East 278 320 6,400 3,360 Descending FlightAware UK
09:33AM 53.3330 -6.0360 96° East 333 383 8,300 2,760 Climbing FlightAware
09:33AM 53.3477 -5.9839 96° East 284 327 7,800 2,580 Descending FlightAware UK
09:33AM 53.3530 -5.9670 96° East 340 391 9,600 2,580 Climbing FlightAware
09:34AM 53.3693 -5.9129 96° East 292 336 9,100 1,860 Descending FlightAware UK
09:34AM 53.3770 -5.8820 96° East 361 415 10,700 960 Climbing FlightAware
09:34AM 53.3907 -5.8350 96° East 326 375 9,600 -780 Descending FlightAware UK
09:35AM 53.4041 -5.7844 66° East 332 382 10,300 6,000 Climbing FlightAware UK
09:35AM 53.4060 -5.7740 66° East 384 442 12,100 6,540 Climbing FlightAware
09:35AM 53.4100 -5.7320 81° East 373 429 12,700 300 Climbing FlightAware
09:35AM 53.4119 -5.6635 81° East 336 387 12,300 300 Descending FlightAware UK
09:36AM 53.4138 -5.6112 86° East 344 396 12,900 6,600 Climbing FlightAware UK
09:36AM 53.4140 -5.6120 86° East 379 436 14,500 1,980 Climbing FlightAware
09:36AM 53.4150 -5.5584 86° East 344 396 13,500 -540 Descending FlightAware UK
09:36AM 53.4163 -5.5045 88° East 350 403 14,200 2,280 Climbing FlightAware UK
09:37AM 53.4176 -5.4490 88° East 352 405 14,900 2,160 Climbing FlightAware UK
09:37AM 53.4191 -5.3933 87° East 358 412 15,500 5,460 Climbing FlightAware UK
09:37AM 53.4190 -5.3970 87° East 400 460 17,000 1,980 Climbing FlightAware
09:37AM 53.4211 -5.3189 87° East 362 417 16,300 -180 Descending FlightAware UK
09:38AM 53.4226 -5.2623 87° East 364 419 16,900 1,800 Climbing FlightAware UK
09:38AM 53.4241 -5.2053 87° East 368 423 17,400 5,460 Climbing FlightAware UK
09:38AM 53.4240 -5.2060 87° East 414 476 19,000 1,980 Climbing FlightAware
09:38AM 53.4261 -5.1279 87° East 372 428 18,200 -540 Descending FlightAware UK
09:39AM 53.4275 -5.0693 88° East 376 433 18,700 1,800 Climbing FlightAware UK
09:39AM 53.4288 -5.0105 88° East 374 430 19,300 1,320 Climbing FlightAware UK
09:39AM 53.4304 -4.9517 87° East 360 414 19,500 300 Climbing FlightAware UK
09:39AM 53.4318 -4.8967 87° East 352 405 19,500 4,080 Level FlightAware UK
09:39AM 53.4320 -4.9130 87° East 400 460 21,000  Climbing FlightAware
09:40AM 53.4338 -4.8047 87° East 350 403 19,500 -2,100 Descending FlightAware UK
09:40AM 53.4349 -4.7497 88° East 348 400 19,500 4,680 Level FlightAware UK
09:40AM 53.4350 -4.7540 88° East 397 457 21,000  Climbing FlightAware
09:41AM 53.4361 -4.6944 88° East 348 400 19,500 -2,580 Descending FlightAware UK
09:41AM 53.4372 -4.6385 88° East 350 403 19,500 3,900 Level FlightAware UK
09:41AM 53.4380 -4.6320 88° East 400 460 21,000  Climbing FlightAware
09:41AM 53.4393 -4.5454 88° East 348 400 19,500  Descending FlightAware UK
09:41AM 53.4400 -4.5230 88° East 402 463 21,000  Climbing FlightAware
09:42AM 53.4409 -4.4521 88° East 350 403 19,500 -2,400 Descending FlightAware UK
09:42AM 53.4419 -4.3959 88° East 350 403 19,500 4,500 Level FlightAware UK
09:42AM 53.4420 -4.4030 88° East 404 465 21,000  Climbing FlightAware
09:43AM 53.4420 -4.3021 88° East 348 400 19,500  Descending FlightAware UK
09:43AM 53.4410 -4.2600 88° East 396 456 21,000 1,560 Climbing FlightAware
09:44AM 53.4360 -4.1520 94° East 396 456 21,000 -1,800 Level FlightAware
09:44AM 53.4320 -4.0447 94° East 352 405 19,000 -900 Descending FlightAware UK
09:44AM 53.4320 -4.0360 94° East 395 455 20,500 -1,200 Climbing FlightAware
09:45AM 53.4283 -3.9534 94° East 354 407 18,400 -3,840 Descending FlightAware UK
09:45AM 53.4264 -3.9002 93° East 354 407 17,900 1,980 Descending FlightAware UK
09:45AM 53.4260 -3.8870 93° East 386 444 19,300 -1,620 Climbing FlightAware
09:46AM 53.4210 -3.7755 93° East 348 400 16,800 -1,560 Descending FlightAware UK
09:46AM 53.4210 -3.7800 93° East 383 441 18,400 -1,440 Climbing FlightAware
09:46AM 53.4174 -3.6869 93° East 350 403 16,100 -1,380 Descending FlightAware UK
09:46AM 53.4170 -3.6680 93° East 383 441 17,500 -600 Climbing FlightAware
09:47AM 53.4310 -3.5400 80° East 419 482 15,600 -4,020 Descending FlightAware
09:47AM 53.4419 -3.4636 80° East 346 398 13,500 -3,660 Descending FlightAware UK
09:48AM 53.4497 -3.4081 77° East 338 389 13,300 3,900 Descending FlightAware UK
09:48AM 53.4490 -3.4150 77° East 398 458 14,800 -1,380 Climbing FlightAware
09:48AM 53.4568 -3.3561 77° East 326 375 12,900 -4,080 Descending FlightAware UK
09:48AM 53.4637 -3.3047 77° East 324 373 12,500 2,460 Descending FlightAware UK
09:48AM 53.4640 -3.2980 77° East 379 436 13,900 -1,500 Climbing FlightAware
09:49AM 53.4722 -3.2365 77° East 314 361 11,900 -3,840 Descending FlightAware UK
09:49AM 53.4785 -3.1888 77° East 302 348 11,600 2,400 Descending FlightAware UK
09:49AM 53.4800 -3.1750 77° East 342 394 13,000 -2,280 Climbing FlightAware
09:49AM 53.4865 -3.1269 77° East 296 341 10,700 -5,460 Descending FlightAware UK
09:50AM 53.4924 -3.0804 78° East 294 338 10,000 1,680 Descending FlightAware UK
09:50AM 53.4930 -3.0740 78° East 337 388 11,400 -2,400 Climbing FlightAware
09:50AM 53.5019 -3.0039 78° East 290 334 8,800 -2,280 Descending FlightAware UK
09:50AM 53.5060 -2.9740 78° East 329 379 9,900 960 Climbing FlightAware
09:51AM 53.5120 -2.9240 79° East 315 362 9,400 -1,740 Descending FlightAware
09:51AM 53.5170 -2.8870 77° East 313 360 8,900 -4,980 Descending FlightAware
09:51AM 53.5240 -2.8295 77° East 272 313 6,500 -1,920 Descending FlightAware UK
09:51AM 53.5240 -2.8280 77° East 315 362 8,100 -300 Climbing FlightAware
09:52AM 53.5311 -2.7727 77° East 260 299 6,400 -240 Descending FlightAware UK
09:52AM 53.5330 -2.7580 77° East 302 348 8,000 -600 Climbing FlightAware
09:52AM 53.5399 -2.7045 77° East 256 295 6,100 -960 Descending FlightAware UK
09:52AM 53.5400 -2.7010 77° East 295 339 7,600 1,500 Climbing FlightAware
09:53AM 53.5480 -2.6340 79° East 291 335 7,000 -1,200 Descending FlightAware
09:53AM 53.5550 -2.5800 78° East 286 329 6,500 -3,180 Descending FlightAware
09:54AM 53.5614 -2.5202 78° East 246 283 4,500 -1,020 Descending FlightAware UK
09:54AM 53.5620 -2.5150 78° East 279 321 6,000 -1,020 Climbing FlightAware
09:54AM 53.5671 -2.4703 78° East 238 274 4,100 -1,200 Descending FlightAware UK
09:54AM 53.5690 -2.4530 78° East 277 319 5,400 -720 Climbing FlightAware
09:55AM 53.5719 -2.3952 78° East 234 269 3,700 -480 Descending FlightAware UK
09:55AM 53.5720 -2.3990 78° East 268 308 5,200  Climbing FlightAware
09:55AM 53.5735 -2.3449 78° East 238 274 3,700  Descending FlightAware UK
09:55AM 53.5740 -2.3380 78° East 265 305 5,200 3,900 Climbing FlightAware
09:55AM 53.5750 -2.3070 87° East 265 305 5,200 -300 Level FlightAware
09:56AM 53.5760 -2.2550 87° East 260 299 5,000 -4,320 Descending FlightAware
09:56AM 53.5760 -2.2462 87° East 234 269 3,400 -6,000 Descending FlightAware UK
09:56AM 53.5706 -2.2123 87° East 228 262 3,100 2,400 Descending FlightAware UK
09:56AM 53.5690 -2.2000 87° East 246 283 4,600 -540 Climbing FlightAware
09:57AM 53.5581 -2.1461 87° East 238 274 2,800 -480 Descending FlightAware UK
09:57AM 53.5590 -2.1520 87° East 251 289 4,400 -480 Climbing FlightAware
09:57AM 53.5500 -2.1022 87° East 218 251 2,600 -480 Descending FlightAware UK
09:57AM 53.5520 -2.1110 87° East 239 275 4,200 6,000 Climbing FlightAware
09:57AM 53.5450 -2.0850 114° Southeast 206 237 4,200 -2,580 Level FlightAware
09:58AM 53.5317 -2.0565 114° Southeast 196 226 2,700  Descending FlightAware UK
09:58AM 53.5310 -2.0550 114° Southeast 188 216 4,200 -1,020 Climbing FlightAware
09:58AM 53.5191 -2.0291 114° Southeast 192 221 2,300 -900 Descending FlightAware UK
09:58AM 53.5210 -2.0330 114° Southeast 186 214 3,900 8,160 Climbing FlightAware
09:58AM 53.5140 -2.0230 140° Southeast 166 191 3,800 -3,780 Descending FlightAware
09:59AM 53.4990 -2.0251 140° Southeast 186 214 2,100 -420 Descending FlightAware UK
09:59AM 53.4950 -2.0270 140° Southeast 153 176 3,600 1,680 Climbing FlightAware
09:59AM 53.4720 -2.0450 205° Southwest 146 168 3,400 -1,980 Descending FlightAware
10:00AM 53.4594 -2.0571 205° Southwest 174 200 1,800 -240 Descending FlightAware UK
10:00AM 53.4590 -2.0580 205° Southwest 129 148 3,300 -420 Climbing FlightAware
10:00AM 53.4477 -2.0796 205° Southwest 168 193 1,600 -240 Descending FlightAware UK
10:00AM 53.4480 -2.0800 205° Southwest 129 148 3,200 -600 Climbing FlightAware
10:01AM 53.4364 -2.1031 205° Southwest 166 191 1,300 -720 Descending FlightAware UK
10:01AM 53.4380 -2.1000 205° Southwest 129 148 2,900 -720 Climbing FlightAware
10:01AM 53.4297 -2.1171 205° Southwest 168 193 1,100 -840 Descending FlightAware UK
10:01AM 53.4270 -2.1220 205° Southwest 129 148 2,500 -840 Climbing FlightAware
10:02AM 53.4162 -2.1453 205° Southwest 162 186 600 -840 Descending FlightAware UK
10:02AM 53.4150 -2.1470 205° Southwest 139 160 2,100 -780 Climbing FlightAware
10:02AM 53.4067 -2.1648 205° Southwest 162 186 300 -600 Descending FlightAware UK
10:02AM 53.4040 -2.1710 205° Southwest 138 159 1,800 2,880 Climbing FlightAware
10:02AM 53.3970 -2.1840 228° Southwest 136 157 1,600 -780 Descending FlightAware
10:03AM 53.3870 -2.2060 233° Southwest 133 153 1,300 -780 Descending FlightAware
10:03AM 53.3810 -2.2180 230° Southwest 138 159 1,100 -780 Descending FlightAware
10:03AM 53.3710 -2.2390 231° Southwest 138 159 800 -780 Descending FlightAware
10:04AM 53.3590 -2.2640 231° Southwest 140 161 400 -840 Descending FlightAware